createdAt,value
2023-04-01T00:01:05.051Z,9.62
2023-04-01T00:03:31.912Z,9.55
2023-04-01T00:05:58.815Z,9.55
2023-04-01T00:08:26.162Z,9.56
2023-04-01T00:10:55.981Z,9.63
2023-04-01T00:13:22.425Z,9.60
2023-04-01T00:15:49.481Z,9.64
2023-04-01T00:18:16.504Z,9.68
2023-04-01T00:20:47.159Z,9.58
2023-04-01T00:23:13.808Z,9.60
2023-04-01T00:25:40.231Z,9.62
2023-04-01T00:28:06.761Z,9.62
2023-04-01T00:30:33.217Z,9.64
2023-04-01T00:32:59.648Z,9.64
2023-04-01T00:35:26.241Z,9.62
2023-04-01T00:37:53.003Z,9.62
2023-04-01T00:40:24.969Z,9.63
2023-04-01T00:42:51.399Z,9.59
2023-04-01T00:45:37.315Z,9.57
2023-04-01T00:48:09.056Z,9.58
2023-04-01T00:50:37.091Z,9.58
2023-04-01T00:53:04.476Z,9.60
2023-04-01T00:55:33.741Z,9.58
2023-04-01T00:58:02.919Z,9.60
2023-04-01T01:00:29.422Z,9.31
2023-04-01T01:02:56.103Z,9.59
2023-04-01T01:05:28.010Z,9.57
2023-04-01T01:07:54.631Z,9.58
2023-04-01T01:10:30.996Z,9.60
2023-04-01T01:13:16.617Z,9.65
2023-04-01T01:15:47.540Z,9.59
2023-04-01T01:18:36.868Z,9.64
2023-04-01T01:21:22.061Z,9.63
2023-04-01T01:23:54.401Z,9.62
2023-04-01T01:26:39.916Z,9.61
2023-04-01T01:29:21.674Z,9.62
2023-04-01T01:31:47.981Z,9.57
2023-04-01T01:34:32.934Z,9.62
2023-04-01T01:37:03.758Z,9.60
2023-04-01T01:39:32.686Z,9.30
2023-04-01T01:42:02.048Z,9.58
2023-04-01T01:44:30.319Z,9.55
2023-04-01T01:46:57.290Z,9.56
2023-04-01T01:49:24.600Z,9.49
2023-04-01T01:51:51.077Z,9.48
2023-04-01T01:54:18.635Z,9.47
2023-04-01T01:56:47.958Z,9.40
2023-04-01T01:59:16.495Z,9.33
2023-04-01T02:01:45.733Z,9.33
2023-04-01T02:04:14.281Z,9.24
2023-04-01T02:06:43.809Z,9.25
2023-04-01T02:09:11.854Z,9.18
2023-04-01T02:11:42.053Z,9.14
2023-04-01T02:14:11.905Z,9.14
2023-04-01T02:16:46.651Z,9.15
2023-04-01T02:19:14.383Z,9.12
2023-04-01T02:21:42.957Z,9.13
2023-04-01T02:24:11.570Z,9.13
2023-04-01T02:26:38.315Z,9.17
2023-04-01T02:29:06.471Z,9.14
2023-04-01T02:31:33.096Z,8.94
2023-04-01T02:34:00.006Z,9.07
2023-04-01T02:36:26.437Z,9.05
2023-04-01T02:38:53.908Z,9.11
2023-04-01T02:41:25.115Z,9.09
2023-04-01T02:43:51.853Z,9.01
2023-04-01T02:46:18.214Z,9.08
2023-04-01T02:48:44.609Z,9.06
2023-04-01T02:51:11.020Z,9.10
2023-04-01T02:53:37.366Z,9.06
2023-04-01T02:56:03.782Z,9.07
2023-04-01T02:58:30.126Z,9.06
2023-04-01T03:00:56.554Z,9.15
2023-04-01T03:03:22.994Z,9.15
2023-04-01T03:05:50.077Z,9.17
2023-04-01T03:08:16.477Z,9.12
2023-04-01T03:10:42.797Z,9.18
2023-04-01T03:13:09.176Z,9.15
2023-04-01T03:15:35.571Z,9.16
2023-04-01T03:18:02.417Z,9.14
2023-04-01T03:20:30.880Z,9.12
2023-04-01T03:22:57.228Z,9.18
2023-04-01T03:25:24.038Z,9.16
2023-04-01T03:27:50.506Z,9.10
2023-04-01T03:30:17.015Z,9.11
2023-04-01T03:32:43.663Z,9.14
2023-04-01T03:35:11.288Z,9.16
2023-04-01T03:37:38.341Z,8.93
2023-04-01T03:40:05.006Z,9.20
2023-04-01T03:42:32.600Z,9.17
2023-04-01T03:44:59.074Z,8.91
2023-04-01T03:47:25.803Z,8.91
2023-04-01T03:49:52.140Z,9.15
2023-04-01T03:52:18.485Z,9.11
2023-04-01T03:54:44.790Z,9.12
2023-04-01T03:57:12.039Z,9.05
2023-04-01T03:59:38.522Z,9.06
2023-04-01T04:02:04.966Z,9.18
2023-04-01T04:04:33.774Z,9.10
2023-04-01T04:07:00.213Z,9.15
2023-04-01T04:09:26.797Z,9.12
2023-04-01T04:11:53.173Z,9.19
2023-04-01T04:14:19.544Z,9.12
2023-04-01T04:16:45.897Z,9.12
2023-04-01T04:19:12.363Z,9.15
2023-04-01T04:21:38.756Z,9.11
2023-04-01T04:24:08.512Z,9.11
2023-04-01T04:26:35.774Z,9.01
2023-04-01T04:29:02.352Z,9.15
2023-04-01T04:31:29.095Z,9.13
2023-04-01T04:33:56.659Z,9.13
2023-04-01T04:36:23.271Z,9.07
2023-04-01T04:38:52.277Z,9.07
2023-04-01T04:41:20.563Z,9.04
2023-04-01T04:43:54.773Z,9.05
2023-04-01T04:46:21.689Z,9.03
2023-04-01T04:48:48.097Z,8.96
2023-04-01T04:51:16.429Z,9.05
2023-04-01T04:53:50.789Z,9.00
2023-04-01T04:56:23.306Z,8.97
2023-04-01T04:58:49.683Z,8.97
2023-04-01T05:01:17.270Z,9.01
2023-04-01T05:03:44.250Z,8.99
2023-04-01T05:06:15.221Z,8.95
2023-04-01T05:08:42.674Z,8.97
2023-04-01T05:11:19.380Z,8.97
2023-04-01T05:13:48.876Z,8.94
2023-04-01T05:16:16.903Z,8.97
2023-04-01T05:18:43.618Z,9.02
2023-04-01T05:21:11.169Z,9.07
2023-04-01T05:23:38.058Z,9.12
2023-04-01T05:26:05.342Z,9.11
2023-04-01T05:28:31.754Z,9.15
2023-04-01T05:30:59.943Z,9.18
2023-04-01T05:33:26.353Z,9.22
2023-04-01T05:35:57.089Z,9.24
2023-04-01T05:38:23.609Z,9.19
2023-04-01T05:40:50.867Z,9.23
2023-04-01T05:43:17.198Z,9.23
2023-04-01T05:45:43.566Z,9.26
2023-04-01T05:48:09.913Z,9.25
2023-04-01T05:50:36.317Z,9.25
2023-04-01T05:53:02.713Z,9.30
2023-04-01T05:55:29.124Z,9.30
2023-04-01T05:57:55.548Z,9.34
2023-04-01T06:00:25.201Z,9.35
2023-04-01T06:02:53.049Z,9.40
2023-04-01T06:05:24.438Z,9.37
2023-04-01T06:08:01.722Z,9.44
2023-04-01T06:10:54.148Z,9.45
2023-04-01T06:13:38.912Z,9.45
2023-04-01T06:16:05.239Z,9.42
2023-04-01T06:18:38.997Z,9.49
2023-04-01T06:21:24.014Z,9.46
2023-04-01T06:24:06.371Z,9.43
2023-04-01T06:26:32.729Z,9.43
2023-04-01T06:29:05.190Z,9.50
2023-04-01T06:31:31.689Z,9.47
2023-04-01T06:34:22.937Z,9.52
2023-04-01T06:36:57.214Z,9.51
2023-04-01T06:39:32.989Z,9.56
2023-04-01T06:42:02.967Z,9.50
2023-04-01T06:44:44.859Z,9.60
2023-04-01T06:47:37.652Z,9.57
2023-04-01T06:50:19.539Z,9.64
2023-04-01T06:53:03.540Z,9.61
2023-04-01T06:55:34.321Z,9.61
2023-04-01T06:58:01.958Z,9.71
2023-04-01T07:00:34.057Z,9.71
2023-04-01T07:03:21.253Z,9.63
2023-04-01T07:05:47.643Z,9.85
2023-04-01T07:08:19.037Z,9.84
2023-04-01T07:10:58.300Z,9.88
2023-04-01T07:13:31.809Z,10.08
2023-04-01T07:16:21.507Z,10.06
2023-04-01T07:18:53.706Z,9.89
2023-04-01T07:21:22.773Z,9.85
2023-04-01T07:23:50.257Z,9.90
2023-04-01T07:26:21.873Z,9.91
2023-04-01T07:28:49.137Z,10.07
2023-04-01T07:31:44.163Z,10.32
2023-04-01T07:34:29.730Z,10.08
2023-04-01T07:36:58.911Z,10.10
2023-04-01T07:39:48.521Z,10.15
2023-04-01T07:42:17.742Z,10.33
2023-04-01T07:45:00.102Z,10.15
2023-04-01T07:47:29.597Z,10.32
2023-04-01T07:50:05.019Z,10.90
2023-04-01T07:52:50.468Z,10.74
2023-04-01T07:55:29.002Z,10.20
2023-04-01T07:57:58.724Z,10.58
2023-04-01T08:00:28.082Z,10.29
2023-04-01T08:03:22.019Z,10.56
2023-04-01T08:05:57.182Z,10.50
2023-04-01T08:08:42.403Z,10.49
2023-04-01T08:11:28.996Z,10.44
2023-04-01T08:14:18.284Z,10.13
2023-04-01T08:17:03.387Z,10.15
2023-04-01T08:19:50.595Z,10.25
2023-04-01T08:22:22.415Z,10.33
2023-04-01T08:24:50.953Z,10.25
2023-04-01T08:27:26.852Z,10.26
2023-04-01T08:29:53.218Z,9.89
2023-04-01T08:32:29.755Z,10.03
2023-04-01T08:35:03.127Z,10.06
2023-04-01T08:37:34.220Z,10.07
2023-04-01T08:40:17.469Z,10.19
2023-04-01T08:42:43.808Z,10.33
2023-04-01T08:45:29.268Z,9.96
2023-04-01T08:48:09.543Z,10.06
2023-04-01T08:50:39.168Z,10.03
2023-04-01T08:53:23.972Z,10.08
2023-04-01T08:56:09.155Z,10.21
2023-04-01T08:58:59.596Z,10.09
2023-04-01T09:01:45.220Z,10.36
2023-04-01T09:04:26.937Z,10.44
2023-04-01T09:06:59.783Z,10.27
2023-04-01T09:09:33.428Z,10.67
2023-04-01T09:12:18.127Z,10.84
2023-04-01T09:14:47.565Z,10.70
2023-04-01T09:17:19.983Z,10.46
2023-04-01T09:20:04.939Z,10.63
2023-04-01T09:22:49.432Z,11.10
2023-04-01T09:25:38.037Z,10.91
2023-04-01T09:28:20.762Z,10.82
2023-04-01T09:31:02.588Z,10.79
2023-04-01T09:33:29.313Z,10.73
2023-04-01T09:36:01.717Z,10.73
2023-04-01T09:38:39.950Z,10.87
2023-04-01T09:41:26.360Z,11.06
2023-04-01T09:43:53.378Z,11.27
2023-04-01T09:46:20.328Z,11.45
2023-04-01T09:48:57.027Z,11.23
2023-04-01T09:51:43.915Z,11.54
2023-04-01T09:54:28.740Z,11.29
2023-04-01T09:57:09.689Z,11.38
2023-04-01T09:59:55.261Z,11.15
2023-04-01T10:02:27.705Z,11.09
2023-04-01T10:04:54.592Z,10.98
2023-04-01T10:07:27.668Z,11.06
2023-04-01T10:10:13.173Z,10.96
2023-04-01T10:12:43.787Z,10.53
2023-04-01T10:15:13.242Z,10.70
2023-04-01T10:17:42.722Z,10.84
2023-04-01T10:20:18.232Z,10.66
2023-04-01T10:22:44.755Z,10.89
2023-04-01T10:25:30.003Z,10.91
2023-04-01T10:28:11.341Z,10.66
2023-04-01T10:30:46.983Z,10.75
2023-04-01T10:33:22.372Z,10.69
2023-04-01T10:36:07.629Z,10.81
2023-04-01T10:38:34.020Z,10.99
2023-04-01T10:41:18.475Z,11.14
2023-04-01T10:43:57.188Z,11.45
2023-04-01T10:46:32.953Z,11.46
2023-04-01T10:48:59.460Z,11.33
2023-04-01T10:51:52.436Z,11.60
2023-04-01T10:54:39.017Z,11.77
2023-04-01T10:57:24.707Z,11.57
2023-04-01T11:00:23.830Z,12.04
2023-04-01T11:03:08.918Z,11.56
2023-04-01T11:05:54.418Z,11.85
2023-04-01T11:08:34.924Z,11.72
2023-04-01T11:11:15.549Z,11.64
2023-04-01T11:14:04.469Z,11.32
2023-04-01T11:16:33.625Z,11.15
2023-04-01T11:19:18.775Z,11.20
2023-04-01T11:21:54.771Z,11.23
2023-04-01T11:24:40.067Z,11.34
2023-04-01T11:27:16.900Z,11.55
2023-04-01T11:30:04.082Z,11.59
2023-04-01T11:32:35.664Z,11.42
2023-04-01T11:35:21.118Z,11.58
2023-04-01T11:38:12.722Z,11.74
2023-04-01T11:40:57.712Z,11.61
2023-04-01T11:43:43.226Z,11.94
2023-04-01T11:46:19.744Z,11.47
2023-04-01T11:48:56.516Z,11.74
2023-04-01T11:51:34.383Z,11.79
2023-04-01T11:54:19.752Z,11.11
2023-04-01T11:57:05.517Z,11.41
2023-04-01T11:59:53.221Z,11.40
2023-04-01T12:02:25.873Z,11.90
2023-04-01T12:04:57.569Z,11.94
2023-04-01T12:07:44.293Z,11.48
2023-04-01T12:10:20.163Z,11.94
2023-04-01T12:12:58.018Z,11.51
2023-04-01T12:15:29.805Z,11.86
2023-04-01T12:18:01.191Z,11.92
2023-04-01T12:20:39.721Z,11.98
2023-04-01T12:23:21.341Z,12.05
2023-04-01T12:25:47.660Z,11.78
2023-04-01T12:28:29.579Z,11.81
2023-04-01T12:31:16.226Z,12.67
2023-04-01T12:34:01.575Z,12.47
2023-04-01T12:36:49.273Z,12.23
2023-04-01T12:39:24.003Z,12.59
2023-04-01T12:41:57.147Z,12.05
2023-04-01T12:44:36.352Z,12.29
2023-04-01T12:47:17.911Z,12.14
2023-04-01T12:49:47.289Z,12.37
2023-04-01T12:52:26.648Z,11.84
2023-04-01T12:55:01.150Z,11.97
2023-04-01T12:57:46.094Z,12.15
2023-04-01T13:00:31.192Z,12.16
2023-04-01T13:03:06.824Z,11.95
2023-04-01T13:05:48.595Z,12.04
2023-04-01T13:08:21.304Z,12.51
2023-04-01T13:10:54.697Z,12.10
2023-04-01T13:13:21.235Z,12.13
2023-04-01T13:15:50.472Z,12.21
2023-04-01T13:18:40.942Z,11.76
2023-04-01T13:21:07.895Z,11.65
2023-04-01T13:23:53.789Z,11.90
2023-04-01T13:26:20.233Z,11.84
2023-04-01T13:29:05.871Z,11.53
2023-04-01T13:31:39.123Z,11.52
2023-04-01T13:34:29.085Z,11.76
2023-04-01T13:37:02.523Z,11.80
2023-04-01T13:39:35.200Z,11.57
2023-04-01T13:42:21.874Z,11.63
2023-04-01T13:44:48.458Z,11.95
2023-04-01T13:47:30.001Z,11.86
2023-04-01T13:49:59.408Z,11.99
2023-04-01T13:52:28.567Z,11.82
2023-04-01T13:55:17.792Z,11.90
2023-04-01T13:57:55.912Z,11.37
2023-04-01T14:00:28.701Z,11.66
2023-04-01T14:03:07.395Z,11.50
2023-04-01T14:05:44.981Z,11.41
2023-04-01T14:08:21.467Z,11.54
2023-04-01T14:10:48.205Z,11.78
2023-04-01T14:13:35.938Z,11.78
2023-04-01T14:16:05.995Z,11.85
2023-04-01T14:18:32.409Z,11.51
2023-04-01T14:21:18.448Z,11.79
2023-04-01T14:24:00.784Z,11.51
2023-04-01T14:26:35.156Z,11.56
2023-04-01T14:29:04.627Z,11.84
2023-04-01T14:31:36.987Z,11.54
2023-04-01T14:34:06.131Z,11.39
2023-04-01T14:36:32.482Z,11.33
2023-04-01T14:39:05.039Z,11.54
2023-04-01T14:41:31.347Z,11.89
2023-04-01T14:44:06.262Z,11.74
2023-04-01T14:47:04.265Z,11.65
2023-04-01T14:49:36.183Z,11.74
2023-04-01T14:52:11.021Z,11.92
2023-04-01T14:54:38.645Z,11.63
2023-04-01T14:57:12.193Z,11.16
2023-04-01T15:00:02.160Z,11.53
2023-04-01T15:02:47.642Z,11.70
2023-04-01T15:05:28.504Z,11.30
2023-04-01T15:08:09.674Z,11.17
2023-04-01T15:10:51.326Z,11.42
2023-04-01T15:13:33.871Z,11.42
2023-04-01T15:16:00.660Z,11.71
2023-04-01T15:18:39.812Z,11.44
2023-04-01T15:21:29.843Z,11.43
2023-04-01T15:23:56.252Z,11.54
2023-04-01T15:26:41.384Z,11.60
2023-04-01T15:29:21.826Z,11.49
2023-04-01T15:32:01.935Z,11.63
2023-04-01T15:34:47.244Z,11.35
2023-04-01T15:37:18.111Z,11.60
2023-04-01T15:39:55.728Z,11.55
2023-04-01T15:42:22.067Z,11.75
2023-04-01T15:44:51.572Z,11.61
2023-04-01T15:47:32.475Z,11.47
2023-04-01T15:50:11.519Z,11.31
2023-04-01T15:52:54.670Z,11.40
2023-04-01T15:55:21.051Z,11.68
2023-04-01T15:57:53.516Z,11.40
2023-04-01T16:00:27.735Z,11.32
2023-04-01T16:03:11.033Z,11.54
2023-04-01T16:05:45.830Z,11.56
2023-04-01T16:08:22.087Z,11.48
2023-04-01T16:10:48.654Z,11.48
2023-04-01T16:13:21.343Z,11.08
2023-04-01T16:15:50.812Z,11.14
2023-04-01T16:18:25.983Z,11.08
2023-04-01T16:20:56.775Z,11.13
2023-04-01T16:23:29.938Z,11.06
2023-04-01T16:26:03.648Z,10.98
2023-04-01T16:28:42.423Z,11.14
2023-04-01T16:31:29.887Z,10.90
2023-04-01T16:33:59.753Z,10.97
2023-04-01T16:36:29.110Z,10.94
2023-04-01T16:39:11.004Z,10.84
2023-04-01T16:41:49.307Z,10.75
2023-04-01T16:44:25.894Z,10.72
2023-04-01T16:46:58.305Z,10.66
2023-04-01T16:49:43.546Z,10.73
2023-04-01T16:52:09.877Z,10.56
2023-04-01T16:54:55.493Z,10.49
2023-04-01T16:57:29.109Z,10.47
2023-04-01T17:00:04.973Z,10.58
2023-04-01T17:02:34.929Z,10.48
2023-04-01T17:05:05.706Z,10.23
2023-04-01T17:08:02.514Z,10.47
2023-04-01T17:10:35.377Z,10.42
2023-04-01T17:13:13.932Z,10.42
2023-04-01T17:15:40.305Z,10.38
2023-04-01T17:18:25.676Z,10.42
2023-04-01T17:21:04.418Z,10.33
2023-04-01T17:23:39.718Z,10.28
2023-04-01T17:26:23.330Z,10.22
2023-04-01T17:28:50.437Z,10.18
2023-04-01T17:31:19.913Z,10.17
2023-04-01T17:33:54.680Z,10.18
2023-04-01T17:36:39.718Z,10.11
2023-04-01T17:39:21.802Z,9.79
2023-04-01T17:41:52.295Z,10.07
2023-04-01T17:44:30.716Z,10.04
2023-04-01T17:47:27.558Z,10.01
2023-04-01T17:50:06.670Z,9.96
2023-04-01T17:52:42.135Z,9.96
2023-04-01T17:55:26.164Z,9.94
2023-04-01T17:57:59.345Z,9.92
2023-04-01T18:00:46.069Z,9.91
2023-04-01T18:03:22.748Z,9.95
2023-04-01T18:05:59.281Z,9.90
2023-04-01T18:08:32.676Z,9.85
2023-04-01T18:11:00.731Z,9.82
2023-04-01T18:13:30.484Z,9.82
2023-04-01T18:16:13.891Z,9.84
2023-04-01T18:18:40.369Z,9.47
2023-04-01T18:21:11.473Z,9.80
2023-04-01T18:24:02.313Z,9.85
2023-04-01T18:26:38.495Z,9.77
2023-04-01T18:29:23.400Z,9.78
2023-04-01T18:31:52.800Z,9.86
2023-04-01T18:34:28.553Z,9.62
2023-04-01T18:37:00.291Z,9.85
2023-04-01T18:39:44.103Z,9.80
2023-04-01T18:42:13.641Z,9.78
2023-04-01T18:44:42.988Z,9.75
2023-04-01T18:47:16.133Z,9.76
2023-04-01T18:49:47.674Z,9.82
2023-04-01T18:52:13.987Z,9.81
2023-04-01T18:55:00.287Z,9.82
2023-04-01T18:57:29.143Z,9.78
2023-04-01T19:00:05.663Z,9.78
2023-04-01T19:02:44.225Z,9.79
2023-04-01T19:05:14.710Z,9.78
2023-04-01T19:07:43.509Z,9.80
2023-04-01T19:10:33.456Z,9.78
2023-04-01T19:13:06.290Z,9.82
2023-04-01T19:15:41.783Z,9.72
2023-04-01T19:18:27.312Z,9.78
2023-04-01T19:20:58.278Z,9.72
2023-04-01T19:23:49.362Z,9.72
2023-04-01T19:26:26.151Z,9.71
2023-04-01T19:29:11.289Z,9.69
2023-04-01T19:32:00.662Z,9.69
2023-04-01T19:34:46.243Z,9.70
2023-04-01T19:37:23.461Z,9.72
2023-04-01T19:39:58.388Z,9.67
2023-04-01T19:42:38.934Z,9.70
2023-04-01T19:45:06.750Z,9.66
2023-04-01T19:47:43.286Z,9.71
2023-04-01T19:50:17.147Z,9.72
2023-04-01T19:52:43.675Z,9.70
2023-04-01T19:55:28.778Z,9.66
2023-04-01T19:58:22.542Z,9.76
2023-04-01T20:00:52.103Z,9.71
2023-04-01T20:03:37.429Z,9.65
2023-04-01T20:06:19.160Z,9.66
2023-04-01T20:09:01.114Z,9.68
2023-04-01T20:11:36.702Z,9.68
2023-04-01T20:14:13.649Z,9.65
2023-04-01T20:16:51.408Z,9.74
2023-04-01T20:19:47.168Z,9.71
2023-04-01T20:22:31.715Z,9.77
2023-04-01T20:25:06.883Z,9.77
2023-04-01T20:27:36.806Z,9.76
2023-04-01T20:30:22.036Z,9.77
2023-04-01T20:33:17.323Z,9.87
2023-04-01T20:35:43.593Z,9.71
2023-04-01T20:38:28.770Z,9.78
2023-04-01T20:41:18.973Z,9.78
2023-04-01T20:43:55.461Z,9.66
2023-04-01T20:46:31.578Z,9.70
2023-04-01T20:49:01.595Z,9.68
2023-04-01T20:51:31.769Z,8.86
2023-04-01T20:54:16.978Z,9.56
2023-04-01T20:57:02.375Z,9.63
2023-04-01T20:59:44.425Z,9.48
2023-04-01T21:02:29.685Z,9.53
2023-04-01T21:05:11.569Z,9.44
2023-04-01T21:07:54.022Z,9.51
2023-04-01T21:10:21.869Z,9.50
2023-04-01T21:12:55.809Z,9.50
2023-04-01T21:15:28.242Z,9.49
2023-04-01T21:17:54.745Z,9.41
2023-04-01T21:20:33.622Z,9.46
2023-04-01T21:23:23.253Z,9.46
2023-04-01T21:26:11.117Z,9.31
2023-04-01T21:28:55.706Z,9.35
2023-04-01T21:31:25.308Z,9.33
2023-04-01T21:34:10.474Z,9.33
2023-04-01T21:36:45.965Z,9.27
2023-04-01T21:39:21.125Z,9.27
2023-04-01T21:41:56.886Z,9.39
2023-04-01T21:44:29.529Z,9.34
2023-04-01T21:46:55.861Z,9.25
2023-04-01T21:49:34.438Z,9.18
2023-04-01T21:52:19.324Z,9.25
2023-04-01T21:54:51.826Z,9.15
2023-04-01T21:57:24.304Z,9.12
2023-04-01T21:59:53.967Z,9.13
2023-04-01T22:02:36.216Z,9.12
2023-04-01T22:05:32.035Z,9.16
2023-04-01T22:07:58.492Z,9.11
2023-04-01T22:10:24.789Z,9.07
2023-04-01T22:13:14.556Z,9.06
2023-04-01T22:15:53.262Z,9.10
2023-04-01T22:18:24.556Z,9.11
2023-04-01T22:20:54.647Z,9.15
2023-04-01T22:23:23.957Z,9.04
2023-04-01T22:25:50.304Z,9.10
2023-04-01T22:28:32.722Z,9.12
2023-04-01T22:31:04.819Z,9.04
2023-04-01T22:33:43.501Z,9.15
2023-04-01T22:36:19.147Z,9.07
2023-04-01T22:38:59.229Z,9.14
2023-04-01T22:41:27.203Z,9.19
2023-04-01T22:43:57.450Z,9.10
2023-04-01T22:46:47.456Z,9.19
2023-04-01T22:49:19.172Z,9.10
2023-04-01T22:51:52.556Z,9.09
2023-04-01T22:54:30.697Z,9.02
2023-04-01T22:57:00.353Z,8.78
2023-04-01T22:59:53.101Z,8.64
2023-04-01T23:02:31.382Z,8.34
2023-04-01T23:05:00.156Z,8.26
2023-04-01T23:07:47.729Z,8.10
2023-04-01T23:10:22.142Z,7.94
2023-04-01T23:12:50.539Z,7.73
2023-04-01T23:15:17.350Z,7.73
2023-04-01T23:17:47.198Z,7.76
2023-04-01T23:20:33.242Z,7.53
2023-04-01T23:23:19.855Z,7.49
2023-04-01T23:25:52.227Z,7.42
2023-04-01T23:28:26.334Z,7.40
2023-04-01T23:30:53.217Z,7.26
2023-04-01T23:33:19.622Z,7.25
2023-04-01T23:35:51.940Z,7.03
2023-04-01T23:38:19.459Z,7.08
2023-04-01T23:40:48.385Z,7.00
2023-04-01T23:43:21.249Z,6.92
2023-04-01T23:45:49.026Z,6.99
2023-04-01T23:48:18.565Z,7.00
2023-04-01T23:50:45.361Z,6.97
2023-04-01T23:53:19.607Z,7.06
2023-04-01T23:55:48.519Z,6.90
2023-04-01T23:58:18.190Z,6.97
